createdAt,value
2019-04-10T00:00:45.906Z,14.70
2019-04-10T00:05:48.000Z,14.40
2019-04-10T00:10:50.600Z,14.30
2019-04-10T00:15:53.141Z,14.20
2019-04-10T00:20:56.619Z,14.00
2019-04-10T00:25:59.319Z,13.90
2019-04-10T00:31:01.844Z,14.00
2019-04-10T00:36:03.740Z,13.90
2019-04-10T00:41:06.052Z,13.80
2019-04-10T00:46:08.508Z,13.80
2019-04-10T00:51:11.035Z,13.90
2019-04-10T00:56:14.512Z,14.10
2019-04-10T01:01:16.156Z,14.10
2019-04-10T01:06:19.801Z,14.10
2019-04-10T01:11:21.293Z,14.00
2019-04-10T01:16:23.806Z,14.00
2019-04-10T01:21:30.454Z,14.00
2019-04-10T01:26:31.942Z,14.20
2019-04-10T01:31:35.123Z,14.20
2019-04-10T01:36:37.513Z,14.10
2019-04-10T01:41:39.910Z,14.00
2019-04-10T01:46:42.470Z,14.00
2019-04-10T01:51:45.591Z,14.00
2019-04-10T01:56:47.958Z,14.10
2019-04-10T02:01:53.929Z,14.20
2019-04-10T02:06:56.433Z,14.20
2019-04-10T02:11:59.054Z,14.20
2019-04-10T02:17:01.656Z,14.10
2019-04-10T02:22:04.418Z,13.90
2019-04-10T02:27:07.792Z,13.90
2019-04-10T02:32:10.332Z,13.80
2019-04-10T02:37:12.882Z,13.80
2019-04-10T02:42:14.535Z,14.00
2019-04-10T02:47:17.119Z,13.80
2019-04-10T02:52:20.271Z,13.80
2019-04-10T02:57:22.200Z,13.60
2019-04-10T03:02:26.438Z,13.60
2019-04-10T03:07:28.352Z,13.40
2019-04-10T03:12:30.210Z,13.10
2019-04-10T03:17:33.261Z,13.40
2019-04-10T03:22:35.235Z,13.30
2019-04-10T03:27:38.708Z,13.40
2019-04-10T03:33:03.296Z,13.60
2019-04-10T03:38:02.497Z,13.60
2019-04-10T03:43:05.568Z,13.50
2019-04-10T03:48:08.459Z,13.60
2019-04-10T03:53:10.326Z,13.60
2019-04-10T03:58:13.478Z,13.50
2019-04-10T04:03:16.110Z,13.50
2019-04-10T04:08:18.050Z,13.40
2019-04-10T04:13:21.550Z,13.30
2019-04-10T04:18:23.166Z,13.20
2019-04-10T04:23:25.774Z,13.10
2019-04-10T04:28:28.303Z,13.10
2019-04-10T04:33:31.749Z,12.80
2019-04-10T04:38:34.620Z,12.90
2019-04-10T04:43:37.066Z,12.90
2019-04-10T04:48:38.842Z,12.70
2019-04-10T04:53:42.007Z,12.70
2019-04-10T04:58:44.019Z,12.60
2019-04-10T05:03:46.626Z,12.60
2019-04-10T05:08:49.215Z,12.50
2019-04-10T05:13:51.801Z,12.60
2019-04-10T05:18:54.415Z,12.60
2019-04-10T05:23:57.519Z,12.60
2019-04-10T05:29:00.517Z,12.70
2019-04-10T05:34:03.057Z,12.70
2019-04-10T05:39:06.378Z,12.70
2019-04-10T05:44:09.515Z,12.70
2019-04-10T05:49:11.336Z,12.70
2019-04-10T05:54:14.917Z,12.80
2019-04-10T05:59:16.700Z,12.70
2019-04-10T06:04:19.215Z,12.40
2019-04-10T06:09:22.752Z,12.30
2019-04-10T06:14:24.383Z,12.60
2019-04-10T06:19:26.997Z,12.90
2019-04-10T06:24:29.945Z,12.90
2019-04-10T06:29:32.065Z,13.10
2019-04-10T06:34:34.611Z,13.30
2019-04-10T06:39:37.223Z,13.10
2019-04-10T06:44:39.666Z,12.90
2019-04-10T06:49:42.220Z,12.80
2019-04-10T06:54:44.893Z,12.80
2019-04-10T06:59:48.224Z,13.20
2019-04-10T07:04:54.261Z,12.90
2019-04-10T07:09:55.137Z,12.90
2019-04-10T07:14:58.050Z,13.20
2019-04-10T07:19:57.692Z,13.60
2019-04-10T07:25:00.547Z,13.90
2019-04-10T07:30:03.576Z,13.80
2019-04-10T07:35:06.649Z,13.90
2019-04-10T07:40:08.348Z,13.90
2019-04-10T07:45:10.961Z,13.90
2019-04-10T07:50:14.271Z,14.00
2019-04-10T07:55:16.946Z,13.70
2019-04-10T08:00:20.044Z,13.90
2019-04-10T08:05:21.471Z,13.60
2019-04-10T08:10:24.261Z,13.70
2019-04-10T08:15:27.319Z,13.60
2019-04-10T08:20:30.567Z,13.50
2019-04-10T08:25:33.226Z,13.60
2019-04-10T08:30:34.957Z,14.00
2019-04-10T08:35:37.844Z,14.40
2019-04-10T08:40:40.445Z,14.80
2019-04-10T08:45:47.123Z,14.60
2019-04-10T08:50:46.123Z,14.20
2019-04-10T08:55:48.500Z,14.60
2019-04-10T09:00:52.347Z,14.70
2019-04-10T09:05:53.210Z,14.60
2019-04-10T09:10:55.794Z,15.10
2019-04-10T09:15:58.444Z,15.10
2019-04-10T09:21:00.946Z,15.20
2019-04-10T09:26:03.834Z,15.50
2019-04-10T09:31:07.277Z,15.70
2019-04-10T09:36:09.039Z,15.90
2019-04-10T09:41:11.913Z,16.30
2019-04-10T09:46:14.052Z,16.30
2019-04-10T09:51:18.457Z,16.20
2019-04-10T09:56:19.402Z,16.50
2019-04-10T10:01:22.077Z,16.80
2019-04-10T10:06:30.699Z,16.70
2019-04-10T10:11:27.247Z,16.80
2019-04-10T10:16:30.322Z,17.10
2019-04-10T10:21:32.509Z,16.70
2019-04-10T10:26:36.371Z,17.10
2019-04-10T10:31:38.078Z,17.20
2019-04-10T10:36:44.459Z,17.30
2019-04-10T10:41:43.140Z,17.70
2019-04-10T10:46:45.727Z,18.50
2019-04-10T10:51:48.253Z,18.70
2019-04-10T10:56:50.994Z,18.40
2019-04-10T11:01:53.876Z,18.70
2019-04-10T11:07:00.463Z,18.50
2019-04-10T11:12:00.135Z,18.40
2019-04-10T11:17:01.566Z,18.80
2019-04-10T11:22:05.127Z,18.80
2019-04-10T11:27:08.545Z,18.50
2019-04-10T11:32:11.672Z,18.70
2019-04-10T11:37:23.112Z,18.80
2019-04-10T11:42:15.631Z,19.00
2019-04-10T11:47:20.030Z,18.80
2019-04-10T11:52:32.049Z,18.10
2019-04-10T11:57:23.436Z,18.40
2019-04-10T12:02:28.178Z,18.40
2019-04-10T12:07:58.614Z,18.70
2019-04-10T12:12:31.184Z,18.90
2019-04-10T12:17:33.879Z,19.20
2019-04-10T12:22:36.406Z,19.60
2019-04-10T12:27:39.103Z,19.50
2019-04-10T12:32:41.684Z,19.80
2019-04-10T12:37:45.337Z,19.80
2019-04-10T12:42:48.222Z,19.70
2019-04-10T12:47:52.373Z,19.80
2019-04-10T12:52:54.722Z,19.80
2019-04-10T12:58:06.619Z,19.70
2019-04-10T13:03:00.738Z,19.40
2019-04-10T13:08:14.691Z,19.10
2019-04-10T13:13:05.948Z,19.40
2019-04-10T13:18:07.986Z,19.50
2019-04-10T13:23:10.856Z,19.30
2019-04-10T13:28:12.792Z,19.30
2019-04-10T13:33:16.259Z,19.20
2019-04-10T13:38:25.779Z,19.20
2019-04-10T13:43:20.861Z,19.10
2019-04-10T13:48:23.672Z,19.10
2019-04-10T13:53:26.411Z,19.00
2019-04-10T13:58:29.077Z,18.80
2019-04-10T14:03:31.592Z,18.60
2019-04-10T14:08:56.038Z,18.40
2019-04-10T14:13:37.990Z,18.30
2019-04-10T14:18:39.670Z,18.20
2019-04-10T14:23:43.125Z,18.30
2019-04-10T14:28:45.737Z,18.20
2019-04-10T14:33:48.895Z,18.00
2019-04-10T14:38:51.561Z,17.80
2019-04-10T14:43:57.744Z,17.70
2019-04-10T14:48:59.367Z,17.70
2019-04-10T14:54:03.745Z,17.90
2019-04-10T14:59:05.386Z,18.00
2019-04-10T15:04:09.020Z,18.10
2019-04-10T15:09:23.240Z,17.90
2019-04-10T15:14:17.922Z,17.90
2019-04-10T15:19:20.555Z,17.60
2019-04-10T15:24:23.766Z,17.50
2019-04-10T15:29:25.724Z,17.70
2019-04-10T15:34:28.331Z,17.50
2019-04-10T15:39:35.655Z,17.00
2019-04-10T15:44:34.303Z,16.90
2019-04-10T15:49:36.631Z,16.90
2019-04-10T15:54:38.899Z,17.00
2019-04-10T15:59:41.582Z,17.10
2019-04-10T16:04:44.459Z,17.10
2019-04-10T16:09:50.714Z,16.90
2019-04-10T16:14:50.663Z,16.80
2019-04-10T16:19:58.148Z,16.60
2019-04-10T16:25:05.364Z,16.50
2019-04-10T16:30:10.313Z,16.70
2019-04-10T16:35:13.875Z,16.70
2019-04-10T16:40:15.427Z,16.50
2019-04-10T16:45:18.093Z,16.50
2019-04-10T16:50:21.565Z,16.50
2019-04-10T16:55:23.252Z,16.30
2019-04-10T17:00:26.918Z,16.10
2019-04-10T17:05:28.543Z,16.10
2019-04-10T17:10:32.380Z,16.20
2019-04-10T17:15:34.396Z,16.10
2019-04-10T17:20:38.258Z,16.00
2019-04-10T17:25:39.814Z,16.20
2019-04-10T17:30:42.485Z,16.20
2019-04-10T17:35:45.530Z,16.20
2019-04-10T17:40:51.329Z,16.00
2019-04-10T17:45:50.982Z,15.90
2019-04-10T17:50:53.377Z,15.70
2019-04-10T17:55:56.002Z,15.60
2019-04-10T18:00:59.660Z,15.70
2019-04-10T18:06:01.553Z,15.90
2019-04-10T18:11:04.359Z,16.00
2019-04-10T18:16:07.006Z,16.00
2019-04-10T18:21:10.581Z,15.80
2019-04-10T18:26:12.671Z,15.50
2019-04-10T18:31:16.651Z,15.60
2019-04-10T18:36:19.463Z,15.70
2019-04-10T18:41:22.105Z,15.80
2019-04-10T18:46:24.041Z,15.60
2019-04-10T18:51:26.701Z,15.50
2019-04-10T18:56:29.312Z,15.50
2019-04-10T19:01:37.062Z,15.20
2019-04-10T19:06:46.782Z,15.30
2019-04-10T19:11:48.719Z,15.10
2019-04-10T19:16:52.798Z,15.00
2019-04-10T19:21:54.250Z,14.90
2019-04-10T19:26:57.892Z,15.10
2019-04-10T19:32:02.173Z,15.30
2019-04-10T19:37:04.041Z,15.20
2019-04-10T19:42:06.574Z,15.00
2019-04-10T19:47:10.363Z,15.20
2019-04-10T19:52:12.100Z,15.20
2019-04-10T19:57:15.292Z,15.20
2019-04-10T20:02:17.333Z,15.20
2019-04-10T20:07:20.733Z,15.20
2019-04-10T20:12:22.685Z,14.90
2019-04-10T20:17:26.069Z,14.80
2019-04-10T20:22:28.353Z,14.70
2019-04-10T20:27:30.491Z,14.80
2019-04-10T20:32:34.201Z,14.60
2019-04-10T20:37:36.596Z,14.80
2019-04-10T20:42:38.508Z,14.70
2019-04-10T20:47:41.318Z,14.50
2019-04-10T20:52:43.724Z,14.60
2019-04-10T20:57:46.237Z,14.40
2019-04-10T21:02:48.902Z,14.60
2019-04-10T21:07:52.301Z,14.70
2019-04-10T21:12:54.602Z,14.70
2019-04-10T21:17:57.051Z,15.00
2019-04-10T21:22:59.158Z,14.70
2019-04-10T21:28:02.528Z,14.70
2019-04-10T21:34:10.489Z,14.70
2019-04-10T21:39:12.356Z,14.60
2019-04-10T21:44:13.841Z,14.70
2019-04-10T21:49:16.546Z,14.70
2019-04-10T21:54:19.028Z,14.60
2019-04-10T21:59:22.550Z,14.50
2019-04-10T22:04:25.114Z,14.50
2019-04-10T22:09:32.069Z,14.50
2019-04-10T22:14:34.599Z,14.10
2019-04-10T22:19:38.107Z,14.20
2019-04-10T22:24:40.511Z,14.40
2019-04-10T22:29:42.660Z,14.00
2019-04-10T22:34:44.471Z,13.90
2019-04-10T22:39:48.115Z,13.70
2019-04-10T22:44:49.789Z,13.50
2019-04-10T22:49:51.806Z,13.40
2019-04-10T22:54:55.248Z,13.20
2019-04-10T22:59:57.421Z,12.70
2019-04-10T23:04:59.785Z,12.80
2019-04-10T23:10:02.581Z,12.90
2019-04-10T23:15:04.345Z,13.00
2019-04-10T23:20:06.878Z,13.00
2019-04-10T23:25:10.016Z,12.90
2019-04-10T23:30:14.922Z,13.20
2019-04-10T23:35:17.365Z,13.00
2019-04-10T23:40:20.920Z,13.00
2019-04-10T23:45:23.783Z,12.90
2019-04-10T23:50:26.014Z,12.50
2019-04-10T23:55:28.149Z,12.70
